YBBN Airport Information

Runway Information
Runway 01 Length 11680 ft width 148 ft
Elevation 12 ft Threshold 197 ft Heading 27
Runway 19 Length 11680 ft Width 148 ft
Elevation 11 ft Threshold 0 ft Heading 207
Runway 14 Length 5577 ft width 98 ft
Elevation 11 ft Threshold 197 ft Heading 147
Runway 32 Length 5577 ft Width 98 ft
Elevation 9 ft Threshold 197 ft Heading 327
Airport Frequencies
Type A/D Name APP/DEP Frequency 124.35 MHZ
Type ATIS Name ATIS Frequency 113.2 MHZ
Type CLD Name CLNC DEL Frequency 118.6 MHZ
Type FSS Name RADAR Frequency 125.7 MHZ
Type GND Name GND Frequency 121.7 MHZ
Type TWR Name TWR Frequency 120.5 MHZ
Airport Navaids
Type VOR-DME Name Brisbane Frequency 113200 KHZ
Airport Weather Information & NOTAM
ADDS - METARS form results

(1502 UTC 24 July 2021)
Data provider http://aviationweather.gov/metar/data/
 
METAR text: YBBN 241500Z 28010KT CAVOK 12/07 Q1011
Conditions at: YBBN (BRISBANE INTL AR, AU) observed 1500 UTC 24 July 2021
Temperature: 12.0°C (54°F)
Dewpoint: 7.0°C (45°F) [RH = 71%]
Pressure (altimeter): 29.85 inches Hg (1011.0 mb)
Winds: from the W (280 degrees) at 12 MPH (10 knots; 5.1 m/s)
Visibility: 6 or more miles (10+ km)
Ceiling: ceiling and visibility are OK
Clouds: unknown
Weather: no significant weather observed at this time

METAR text: YBBN 241430Z 33001KT CAVOK 11/06 Q1010
Conditions at: YBBN (BRISBANE INTL AR, AU) observed 1430 UTC 24 July 2021
Temperature: 11.0°C (52°F)
Dewpoint: 6.0°C (43°F) [RH = 71%]
Pressure (altimeter): 29.82 inches Hg (1010.0 mb)
Winds: from the NNW (330 degrees) at 1 MPH (1 knots; 0.5 m/s)
Visibility: 6 or more miles (10+ km)
Ceiling: ceiling and visibility are OK
Clouds: unknown
Weather: no significant weather observed at this time

Forecast for: YBBN (BRISBANE INTL AR, AU)
Text: TAF YBBN 241417Z 2415/2518 26008KT CAVOK
Forecast period: 1500 UTC 24 July 2021 to 0000 UTC 25 July 2021
Forecast type: FROM: standard forecast or significant change
Winds: from the W (260 degrees) at 9 MPH (8 knots; 4.1 m/s)
Visibility: 6 or more miles (10+ km)
Ceiling: unknown
Clouds: missing
Weather: NSW  (no significant weather)
Text: FM250000 26025G35KT CAVOK
Forecast period: 0000 to 0900 UTC 25 July 2021
Forecast type: FROM: standard forecast or significant change
Winds: from the W (260 degrees) at 29 MPH (25 knots; 12.9 m/s)
gusting to 40 MPH (35 knots; 18.0 m/s)
Visibility: 6 or more miles (10+ km)
Ceiling: unknown
Clouds: missing
Weather: NSW  (no significant weather)
Text: FM250900 24010KT CAVOK
Forecast period: 0900 to 1800 UTC 25 July 2021
Forecast type: FROM: standard forecast or significant change
Winds: from the WSW (240 degrees) at 12 MPH (10 knots; 5.1 m/s)
Visibility: 6 or more miles (10+ km)
Ceiling: unknown
Clouds: missing
Weather: NSW  (no significant weather)